History for KNYNEWYO805

Frying Pan NYC, New York, NY — Current Conditions
Daily Summary for October 24, 2017
  Current: High: Low: Average:
Temperature: 69.6°F 69.6°F 68.7°F 69.1°F
Dew Point: 66.9°F 67.1°F 65.8°F 66.4°F
Humidity: 91% 93% 90% 92%
Wind Speed: 8.7mph 13.0mph - 4.4mph
Wind Gust: 13.0mph 13.0mph - -
Wind: ESE - - SE
Pressure: 29.87in 29.98in 29.84in -
Precipitation: 0.00in      
Statistics for the rest of the month
    High: Low: Average:
Temperature:   80.2°F -34.4°F 65.2°F
Dew Point:   75.2°F -40.0°F 59.2°F
Humidity:   99.0% 34.0% 78.5%
Wind Speed:   16.8mph from the NW - 2.7mph
Wind Gust:   16.8mph from the West - -
Wind:   - - South
Pressure:   30.44in 29.19in -
Precipitation:   0.84in    
KNYNEWYO805 Weather Graph
Tabular Data for October 24, 2017
Time Temp. Dew Point Pressure Wind Gust Humidity Rainfall Solar Radiation
00:01 69.1°F 66.0°F 29.97in 11.9mph 90% 0.00in -9999 watts/m^2
00:06 69.1°F 66.4°F 29.96in 11.9mph 91% 0.00in -9999 watts/m^2
00:11 69.1°F 66.4°F 29.97in 11.9mph 91% 0.00in -9999 watts/m^2
00:16 69.1°F 66.4°F 29.97in 11.9mph 91% 0.00in -9999 watts/m^2
00:21 69.1°F 66.4°F 29.96in 11.9mph 91% 0.00in -9999 watts/m^2
00:26 69.1°F 66.4°F 29.97in 11.9mph 91% 0.00in -9999 watts/m^2
00:31 68.9°F 66.2°F 29.96in 11.9mph 91% 0.00in -9999 watts/m^2
00:36 68.9°F 66.2°F 29.96in 11.9mph 91% 0.00in -9999 watts/m^2
00:41 68.9°F 66.2°F 29.96in 11.9mph 91% 0.00in -9999 watts/m^2
00:46 68.9°F 66.2°F 29.96in 11.9mph 91% 0.00in -9999 watts/m^2
00:51 68.9°F 66.2°F 29.97in 11.9mph 91% 0.00in -9999 watts/m^2
01:01 68.9°F 66.2°F 29.98in 11.9mph 91% 0.00in -9999 watts/m^2
01:06 68.9°F 66.2°F 29.97in 11.9mph 91% 0.00in -9999 watts/m^2
01:11 68.9°F 66.2°F 29.98in 11.9mph 91% 0.00in -9999 watts/m^2
01:16 68.9°F 66.2°F 29.97in 11.9mph 91% 0.00in -9999 watts/m^2
01:21 68.9°F 66.2°F 29.98in 11.9mph 91% 0.00in -9999 watts/m^2
01:26 68.9°F 66.2°F 29.98in 8.7mph 91% 0.00in -9999 watts/m^2
01:31 68.7°F 66.0°F 29.98in 9.4mph 91% 0.00in -9999 watts/m^2
01:36 68.9°F 66.2°F 29.97in 9.4mph 91% 0.00in -9999 watts/m^2
01:42 68.9°F 66.2°F 29.98in 9.4mph 91% 0.00in -9999 watts/m^2
01:47 68.9°F 66.2°F 29.98in 9.4mph 91% 0.00in -9999 watts/m^2
01:52 68.9°F 66.2°F 29.97in 9.4mph 91% 0.00in -9999 watts/m^2
01:57 68.9°F 66.2°F 29.97in 9.4mph 91% 0.00in -9999 watts/m^2
02:02 68.9°F 66.2°F 29.97in 9.4mph 91% 0.00in -9999 watts/m^2
02:07 68.9°F 66.2°F 29.97in 9.4mph 91% 0.00in -9999 watts/m^2
02:12 68.9°F 66.6°F 29.97in 9.4mph 92% 0.00in -9999 watts/m^2
02:17 68.9°F 66.2°F 29.97in 9.4mph 91% 0.00in -9999 watts/m^2
02:22 68.7°F 66.4°F 29.96in 9.4mph 92% 0.00in -9999 watts/m^2
02:27 68.7°F 66.4°F 29.96in 9.4mph 92% 0.00in -9999 watts/m^2
02:32 68.7°F 66.4°F 29.96in 9.4mph 92% 0.00in -9999 watts/m^2
02:37 68.7°F 66.4°F 29.94in 9.4mph 92% 0.00in -9999 watts/m^2
02:42 68.7°F 66.4°F 29.94in 9.4mph 92% 0.00in -9999 watts/m^2
02:47 68.7°F 66.4°F 29.95in 9.4mph 92% 0.00in -9999 watts/m^2
02:52 68.9°F 66.6°F 29.93in 9.4mph 92% 0.00in -9999 watts/m^2
02:57 68.7°F 66.4°F 29.94in 9.4mph 92% 0.00in -9999 watts/m^2
03:02 68.7°F 66.4°F 29.92in 9.4mph 92% 0.00in -9999 watts/m^2
03:07 68.7°F 66.4°F 29.91in 9.4mph 92% 0.00in -9999 watts/m^2
03:12 68.9°F 66.7°F 29.91in 11.9mph 93% 0.00in -9999 watts/m^2
03:17 68.9°F 66.6°F 29.90in 11.9mph 92% 0.00in -9999 watts/m^2
03:22 68.9°F 66.6°F 29.90in 11.9mph 92% 0.00in -9999 watts/m^2
03:27 68.9°F 66.6°F 29.88in 11.9mph 92% 0.00in -9999 watts/m^2
03:32 68.7°F 66.4°F 29.88in 11.9mph 92% 0.00in -9999 watts/m^2
03:37 68.7°F 66.4°F 29.89in 11.9mph 92% 0.00in -9999 watts/m^2
03:42 68.7°F 66.4°F 29.88in 11.9mph 92% 0.00in -9999 watts/m^2
03:47 68.9°F 66.6°F 29.87in 11.9mph 92% 0.00in -9999 watts/m^2
03:52 68.9°F 66.7°F 29.87in 11.9mph 93% 0.00in -9999 watts/m^2
03:57 68.9°F 66.7°F 29.87in 11.9mph 93% 0.00in -9999 watts/m^2
04:02 68.9°F 66.6°F 29.87in 11.9mph 92% 0.00in -9999 watts/m^2
04:07 68.9°F 66.7°F 29.86in 10.5mph 93% 0.00in -9999 watts/m^2
04:12 68.9°F 66.6°F 29.86in 10.5mph 92% 0.00in -9999 watts/m^2
04:17 69.1°F 66.7°F 29.86in 12.5mph 92% 0.00in -9999 watts/m^2
04:22 69.1°F 66.7°F 29.85in 12.5mph 92% 0.00in -9999 watts/m^2
04:27 69.1°F 66.7°F 29.84in 13.0mph 92% 0.00in -9999 watts/m^2
04:32 69.1°F 66.7°F 29.84in 13.0mph 92% 0.00in -9999 watts/m^2
04:42 69.3°F 66.9°F 29.85in 13.0mph 92% 0.00in -9999 watts/m^2
04:45 69.3°F 66.9°F 29.85in 13.0mph 92% 0.00in -9999 watts/m^2
04:50 69.3°F 66.9°F 29.85in 13.0mph 92% 0.00in -9999 watts/m^2
04:55 69.4°F 67.1°F 29.85in 13.0mph 92% 0.00in -9999 watts/m^2
05:00 69.4°F 66.7°F 29.85in 13.0mph 91% 0.00in -9999 watts/m^2
05:05 69.6°F 66.9°F 29.86in 13.0mph 91% 0.00in -9999 watts/m^2
05:10 69.4°F 66.7°F 29.87in 13.0mph 91% 0.00in -9999 watts/m^2
Comma Delimited File
Powered by Weather Underground, Inc.